createdAt,value
2023-05-08T00:01:58.586Z,14.00
2023-05-08T00:04:25.759Z,13.90
2023-05-08T00:06:53.108Z,13.90
2023-05-08T00:09:20.830Z,13.90
2023-05-08T00:11:47.844Z,13.90
2023-05-08T00:14:14.855Z,13.90
2023-05-08T00:16:42.179Z,13.90
2023-05-08T00:19:09.235Z,13.80
2023-05-08T00:21:36.174Z,13.90
2023-05-08T00:24:03.191Z,13.80
2023-05-08T00:26:30.160Z,13.80
2023-05-08T00:28:57.506Z,13.80
2023-05-08T00:31:24.699Z,13.70
2023-05-08T00:33:51.708Z,13.70
2023-05-08T00:36:18.677Z,13.70
2023-05-08T00:38:46.301Z,13.70
2023-05-08T00:41:13.254Z,13.70
2023-05-08T00:43:40.489Z,13.60
2023-05-08T00:46:09.911Z,13.70
2023-05-08T00:48:37.675Z,13.70
2023-05-08T00:51:08.421Z,13.70
2023-05-08T00:53:42.923Z,13.70
2023-05-08T00:56:15.461Z,13.70
2023-05-08T00:58:44.090Z,13.60
2023-05-08T01:01:11.620Z,13.60
2023-05-08T01:03:39.164Z,13.60
2023-05-08T01:06:07.019Z,13.60
2023-05-08T01:08:34.546Z,13.60
2023-05-08T01:11:11.447Z,13.60
2023-05-08T01:14:02.980Z,13.50
2023-05-08T01:16:37.688Z,13.50
2023-05-08T01:19:21.729Z,13.50
2023-05-08T01:21:58.750Z,13.50
2023-05-08T01:24:34.391Z,13.50
2023-05-08T01:27:16.547Z,13.50
2023-05-08T01:30:05.887Z,13.50
2023-05-08T01:32:41.845Z,13.50
2023-05-08T01:35:22.138Z,13.50
2023-05-08T01:38:20.753Z,13.50
2023-05-08T01:41:09.270Z,13.50
2023-05-08T01:44:15.106Z,13.50
2023-05-08T01:46:44.255Z,13.60
2023-05-08T01:49:24.003Z,13.60
2023-05-08T01:51:59.177Z,13.60
2023-05-08T01:54:28.870Z,13.60
2023-05-08T01:56:59.602Z,13.60
2023-05-08T01:59:28.339Z,13.60
2023-05-08T02:01:57.475Z,13.60
2023-05-08T02:04:27.281Z,13.50
2023-05-08T02:06:57.194Z,13.50
2023-05-08T02:09:25.453Z,13.50
2023-05-08T02:11:55.470Z,13.50
2023-05-08T02:14:23.676Z,13.50
2023-05-08T02:16:52.510Z,13.50
2023-05-08T02:19:22.014Z,13.50
2023-05-08T02:21:50.366Z,13.50
2023-05-08T02:24:18.057Z,13.50
2023-05-08T02:26:47.615Z,13.50
2023-05-08T02:29:15.581Z,13.50
2023-05-08T02:31:44.881Z,13.50
2023-05-08T02:34:12.660Z,13.50
2023-05-08T02:36:41.073Z,13.50
2023-05-08T02:39:12.087Z,13.50
2023-05-08T02:41:41.262Z,13.50
2023-05-08T02:44:09.508Z,13.50
2023-05-08T02:47:10.357Z,13.50
2023-05-08T02:49:42.966Z,13.50
2023-05-08T02:52:17.356Z,13.50
2023-05-08T02:54:53.799Z,13.50
2023-05-08T02:57:42.340Z,13.60
2023-05-08T03:00:23.890Z,13.50
2023-05-08T03:03:01.346Z,13.50
2023-05-08T03:05:35.228Z,13.50
2023-05-08T03:08:18.566Z,13.50
2023-05-08T03:10:49.278Z,13.50
2023-05-08T03:13:19.913Z,13.50
2023-05-08T03:16:00.351Z,13.50
2023-05-08T03:18:33.470Z,13.50
2023-05-08T03:21:01.261Z,13.50
2023-05-08T03:23:31.850Z,13.50
2023-05-08T03:26:01.478Z,13.40
2023-05-08T03:28:30.593Z,13.40
2023-05-08T03:31:00.669Z,13.40
2023-05-08T03:33:29.637Z,13.40
2023-05-08T03:35:59.545Z,13.40
2023-05-08T03:38:27.006Z,13.40
2023-05-08T03:40:54.025Z,13.40
2023-05-08T03:43:22.253Z,13.40
2023-05-08T03:45:50.249Z,13.40
2023-05-08T03:48:19.659Z,13.40
2023-05-08T03:50:47.362Z,13.40
2023-05-08T03:53:14.698Z,13.40
2023-05-08T03:55:41.856Z,13.40
2023-05-08T03:58:32.780Z,13.40
2023-05-08T04:01:20.615Z,13.40
2023-05-08T04:04:07.939Z,13.40
2023-05-08T04:06:50.368Z,13.50
2023-05-08T04:09:28.621Z,13.40
2023-05-08T04:12:26.658Z,13.40
2023-05-08T04:15:00.209Z,13.40
2023-05-08T04:17:45.584Z,13.40
2023-05-08T04:20:18.405Z,13.40
2023-05-08T04:22:48.495Z,13.40
2023-05-08T04:25:17.869Z,13.40
2023-05-08T04:27:46.080Z,13.40
2023-05-08T04:30:13.599Z,13.30
2023-05-08T04:32:43.416Z,13.30
2023-05-08T04:35:13.718Z,13.30
2023-05-08T04:37:43.586Z,13.30
2023-05-08T04:40:11.149Z,13.20
2023-05-08T04:42:42.854Z,13.20
2023-05-08T04:45:10.904Z,13.10
2023-05-08T04:47:38.072Z,13.10
2023-05-08T04:50:06.067Z,13.20
2023-05-08T04:52:34.538Z,13.10
2023-05-08T04:55:01.894Z,13.10
2023-05-08T04:57:30.332Z,13.10
2023-05-08T04:59:57.430Z,13.10
2023-05-08T05:02:26.727Z,13.10
2023-05-08T05:04:54.170Z,13.10
2023-05-08T05:07:21.122Z,13.10
2023-05-08T05:09:48.132Z,13.20
2023-05-08T05:12:15.193Z,13.20
2023-05-08T05:14:42.213Z,13.20
2023-05-08T05:17:09.210Z,13.20
2023-05-08T05:19:36.382Z,13.20
2023-05-08T05:22:03.835Z,13.20
2023-05-08T05:24:32.165Z,13.20
2023-05-08T05:27:00.546Z,13.10
2023-05-08T05:29:28.411Z,13.20
2023-05-08T05:31:55.668Z,13.10
2023-05-08T05:34:22.861Z,13.20
2023-05-08T05:36:49.903Z,13.20
2023-05-08T05:39:16.924Z,13.20
2023-05-08T05:41:44.381Z,13.20
2023-05-08T05:44:12.091Z,13.30
2023-05-08T05:46:39.123Z,13.30
2023-05-08T05:49:06.500Z,13.30
2023-05-08T05:51:34.248Z,13.30
2023-05-08T05:54:01.409Z,13.30
2023-05-08T05:56:28.434Z,13.30
2023-05-08T05:58:55.853Z,13.30
2023-05-08T06:01:24.869Z,13.40
2023-05-08T06:03:52.324Z,13.30
2023-05-08T06:06:19.397Z,13.30
2023-05-08T06:08:48.495Z,13.30
2023-05-08T06:11:15.502Z,13.40
2023-05-08T06:13:43.966Z,13.30
2023-05-08T06:16:12.106Z,13.40
2023-05-08T06:18:39.212Z,13.30
2023-05-08T06:21:06.170Z,13.40
2023-05-08T06:23:33.517Z,13.40
2023-05-08T06:26:00.628Z,13.40
2023-05-08T06:28:28.171Z,13.40
2023-05-08T06:30:55.226Z,13.40
2023-05-08T06:33:23.651Z,13.40
2023-05-08T06:35:52.488Z,13.40
2023-05-08T06:38:19.413Z,13.50
2023-05-08T06:40:47.143Z,13.50
2023-05-08T06:43:14.313Z,13.50
2023-05-08T06:45:43.195Z,13.50
2023-05-08T06:48:10.220Z,13.60
2023-05-08T06:50:40.823Z,13.60
2023-05-08T06:53:08.593Z,13.70
2023-05-08T06:55:36.033Z,13.60
2023-05-08T06:58:03.840Z,13.70
2023-05-08T07:00:31.481Z,13.70
2023-05-08T07:02:58.465Z,13.80
2023-05-08T07:05:25.454Z,13.80
2023-05-08T07:07:54.264Z,13.90
2023-05-08T07:10:22.945Z,13.90
2023-05-08T07:12:50.165Z,13.90
2023-05-08T07:15:25.284Z,14.00
2023-05-08T07:17:53.080Z,14.00
2023-05-08T07:20:20.498Z,14.10
2023-05-08T07:22:47.521Z,14.10
2023-05-08T07:25:14.631Z,14.20
2023-05-08T07:27:42.197Z,14.30
2023-05-08T07:30:09.819Z,14.40
2023-05-08T07:32:39.181Z,14.40
2023-05-08T07:35:10.768Z,14.40
2023-05-08T07:37:39.499Z,14.50
2023-05-08T07:40:07.366Z,14.50
2023-05-08T07:42:42.214Z,14.50
2023-05-08T07:45:10.683Z,14.60
2023-05-08T07:47:38.681Z,14.60
2023-05-08T07:50:07.026Z,14.70
2023-05-08T07:52:33.955Z,14.70
2023-05-08T07:55:00.981Z,14.70
2023-05-08T07:57:27.970Z,14.80
2023-05-08T07:59:55.000Z,14.70
2023-05-08T08:02:22.066Z,14.80
2023-05-08T08:04:49.602Z,14.80
2023-05-08T08:07:16.772Z,14.90
2023-05-08T08:09:43.887Z,14.90
2023-05-08T08:12:11.397Z,14.90
2023-05-08T08:14:38.387Z,14.90
2023-05-08T08:17:05.790Z,15.00
2023-05-08T08:19:32.900Z,14.90
2023-05-08T08:22:00.731Z,15.00
2023-05-08T08:24:29.341Z,15.00
2023-05-08T08:26:56.332Z,15.00
2023-05-08T08:29:23.650Z,15.10
2023-05-08T08:31:50.648Z,15.10
2023-05-08T08:34:18.105Z,15.10
2023-05-08T08:36:45.112Z,15.10
2023-05-08T08:39:13.423Z,15.10
2023-05-08T08:41:41.862Z,15.10
2023-05-08T08:44:09.286Z,15.20
2023-05-08T08:46:44.124Z,15.20
2023-05-08T08:49:17.800Z,15.20
2023-05-08T08:51:52.942Z,15.20
2023-05-08T08:54:24.621Z,15.30
2023-05-08T08:56:53.527Z,15.30
2023-05-08T08:59:23.068Z,15.30
2023-05-08T09:01:56.465Z,15.30
2023-05-08T09:04:27.275Z,15.40
2023-05-08T09:06:55.067Z,15.40
2023-05-08T09:09:22.743Z,15.50
2023-05-08T09:11:51.861Z,15.50
2023-05-08T09:14:19.056Z,15.50
2023-05-08T09:16:46.176Z,15.60
2023-05-08T09:19:16.040Z,15.70
2023-05-08T09:21:43.374Z,15.80
2023-05-08T09:24:10.481Z,15.90
2023-05-08T09:26:39.662Z,15.90
2023-05-08T09:29:11.861Z,15.90
2023-05-08T09:31:40.826Z,16.00
2023-05-08T09:34:22.648Z,16.10
2023-05-08T09:36:50.131Z,16.20
2023-05-08T09:39:25.912Z,16.30
2023-05-08T09:42:00.831Z,16.30
2023-05-08T09:44:28.147Z,16.40
2023-05-08T09:47:12.048Z,16.40
2023-05-08T09:49:42.007Z,16.50
2023-05-08T09:52:15.473Z,16.60
2023-05-08T09:54:42.531Z,16.60
2023-05-08T09:57:13.523Z,16.60
2023-05-08T09:59:40.619Z,16.60
2023-05-08T10:02:12.346Z,16.70
2023-05-08T10:04:39.455Z,16.70
2023-05-08T10:07:06.467Z,16.70
2023-05-08T10:09:46.872Z,16.70
2023-05-08T10:12:17.142Z,16.70
2023-05-08T10:14:46.540Z,16.70
2023-05-08T10:17:21.646Z,16.70
2023-05-08T10:19:52.306Z,16.80
2023-05-08T10:22:21.845Z,16.80
2023-05-08T10:24:53.833Z,16.80
2023-05-08T10:27:30.491Z,16.80
2023-05-08T10:30:01.666Z,16.80
2023-05-08T10:32:30.776Z,16.80
2023-05-08T10:35:00.222Z,16.80
2023-05-08T10:37:30.132Z,16.80
2023-05-08T10:39:58.737Z,16.70
2023-05-08T10:42:26.332Z,16.70
2023-05-08T10:44:54.712Z,16.70
2023-05-08T10:47:39.711Z,16.60
2023-05-08T10:50:06.828Z,16.60
2023-05-08T10:52:52.860Z,16.60
2023-05-08T10:55:22.479Z,16.60
2023-05-08T10:58:12.329Z,16.60
2023-05-08T11:00:57.629Z,16.60
2023-05-08T11:03:31.916Z,16.50
2023-05-08T11:06:01.826Z,16.40
2023-05-08T11:08:30.549Z,16.40
2023-05-08T11:11:00.498Z,16.40
2023-05-08T11:13:37.780Z,16.30
2023-05-08T11:16:11.090Z,16.30
2023-05-08T11:18:49.164Z,16.20
2023-05-08T11:21:24.017Z,16.20
2023-05-08T11:23:58.056Z,16.20
2023-05-08T11:26:40.531Z,16.20
2023-05-08T11:29:17.721Z,16.20
2023-05-08T11:31:51.671Z,16.30
2023-05-08T11:34:43.964Z,16.30
2023-05-08T11:37:20.823Z,16.40
2023-05-08T11:39:48.516Z,16.40
2023-05-08T11:42:33.774Z,16.40
2023-05-08T11:45:08.301Z,16.50
2023-05-08T11:47:43.806Z,16.50
2023-05-08T11:50:13.235Z,16.60
2023-05-08T11:52:41.980Z,16.60
2023-05-08T11:55:11.461Z,16.70
2023-05-08T11:57:38.472Z,16.70
2023-05-08T12:00:11.079Z,16.70
2023-05-08T12:02:41.079Z,16.80
2023-05-08T12:05:09.548Z,16.80
2023-05-08T12:07:47.252Z,16.90
2023-05-08T12:10:15.876Z,16.90
2023-05-08T12:12:44.657Z,16.90
2023-05-08T12:15:15.616Z,16.90
2023-05-08T12:17:43.662Z,16.90
2023-05-08T12:20:14.645Z,16.90
2023-05-08T12:22:43.854Z,17.00
2023-05-08T12:25:12.960Z,17.00
2023-05-08T12:27:40.283Z,17.00
2023-05-08T12:30:14.140Z,17.00
2023-05-08T12:32:42.713Z,17.00
2023-05-08T12:35:11.665Z,17.00
2023-05-08T12:37:38.976Z,17.00
2023-05-08T12:40:07.244Z,17.00
2023-05-08T12:42:46.817Z,17.10
2023-05-08T12:45:24.429Z,17.10
2023-05-08T12:47:53.470Z,17.10
2023-05-08T12:50:21.934Z,17.10
2023-05-08T12:52:51.599Z,17.10
2023-05-08T12:55:26.951Z,17.20
2023-05-08T12:58:07.412Z,17.20
2023-05-08T13:00:41.895Z,17.20
2023-05-08T13:03:10.476Z,17.30
2023-05-08T13:05:46.075Z,17.30
2023-05-08T13:08:13.243Z,17.30
2023-05-08T13:10:46.694Z,17.40
2023-05-08T13:13:15.114Z,17.40
2023-05-08T13:15:42.579Z,17.40
2023-05-08T13:18:10.043Z,17.50
2023-05-08T13:20:37.512Z,17.50
2023-05-08T13:23:05.120Z,17.60
2023-05-08T13:25:33.005Z,17.60
2023-05-08T13:28:00.400Z,17.70
2023-05-08T13:30:27.648Z,17.70
2023-05-08T13:32:55.064Z,17.70
2023-05-08T13:35:22.449Z,17.80
2023-05-08T13:37:49.996Z,17.80
2023-05-08T13:40:17.732Z,17.80
2023-05-08T13:42:44.745Z,17.90
2023-05-08T13:45:14.624Z,17.90
2023-05-08T13:47:46.493Z,17.90
2023-05-08T13:50:15.882Z,17.90
2023-05-08T13:52:43.253Z,17.90
2023-05-08T13:55:13.505Z,17.90
2023-05-08T13:57:41.350Z,17.90
2023-05-08T14:00:09.578Z,18.00
2023-05-08T14:02:37.847Z,18.10
2023-05-08T14:05:08.159Z,18.20
2023-05-08T14:07:36.129Z,18.20
2023-05-08T14:10:03.685Z,18.30
2023-05-08T14:12:31.013Z,18.40
2023-05-08T14:14:58.245Z,18.50
2023-05-08T14:17:25.457Z,18.50
2023-05-08T14:19:52.536Z,18.60
2023-05-08T14:22:19.636Z,18.50
2023-05-08T14:24:46.814Z,18.60
2023-05-08T14:27:13.932Z,18.60
2023-05-08T14:29:41.588Z,18.60
2023-05-08T14:32:09.508Z,18.60
2023-05-08T14:34:36.543Z,18.60
2023-05-08T14:37:03.616Z,18.50
2023-05-08T14:39:30.759Z,18.50
2023-05-08T14:42:20.808Z,18.50
2023-05-08T14:44:44.788Z,18.50
2023-05-08T14:47:11.723Z,18.60
2023-05-08T14:49:39.037Z,18.60
2023-05-08T14:52:07.377Z,18.60
2023-05-08T14:54:34.776Z,18.70
2023-05-08T14:57:01.934Z,18.70
2023-05-08T14:59:28.999Z,18.80
2023-05-08T15:01:56.002Z,18.90
2023-05-08T15:04:23.285Z,18.90
2023-05-08T15:06:50.467Z,18.90
2023-05-08T15:09:17.539Z,18.90
2023-05-08T15:11:44.717Z,18.90
2023-05-08T15:14:11.777Z,18.90
2023-05-08T15:16:38.797Z,18.90
2023-05-08T15:19:05.852Z,18.90
2023-05-08T15:21:32.819Z,19.00
2023-05-08T15:23:59.936Z,19.10
2023-05-08T15:26:26.888Z,19.10
2023-05-08T15:28:53.944Z,19.10
2023-05-08T15:31:20.918Z,19.20
2023-05-08T15:33:48.336Z,19.20
2023-05-08T15:36:15.841Z,19.20
2023-05-08T15:38:43.238Z,19.20
2023-05-08T15:41:14.750Z,19.20
2023-05-08T15:43:43.329Z,19.20
2023-05-08T15:46:10.494Z,19.20
2023-05-08T15:48:37.536Z,19.20
2023-05-08T15:51:04.566Z,19.20
2023-05-08T15:53:33.082Z,19.10
2023-05-08T15:56:00.026Z,19.10
2023-05-08T15:58:27.708Z,19.10
2023-05-08T16:00:55.052Z,19.10
2023-05-08T16:03:22.262Z,19.10
2023-05-08T16:05:49.586Z,19.00
2023-05-08T16:08:16.642Z,19.00
2023-05-08T16:10:43.657Z,18.90
2023-05-08T16:13:10.840Z,18.90
2023-05-08T16:15:37.913Z,18.80
2023-05-08T16:18:05.261Z,18.80
2023-05-08T16:20:34.315Z,18.80
2023-05-08T16:23:02.872Z,18.70
2023-05-08T16:25:29.830Z,18.70
2023-05-08T16:27:56.894Z,18.60
2023-05-08T16:30:23.825Z,18.60
2023-05-08T16:32:50.923Z,18.60
2023-05-08T16:35:18.280Z,18.60
2023-05-08T16:37:45.766Z,18.60
2023-05-08T16:40:12.978Z,18.60
2023-05-08T16:42:40.028Z,18.60
2023-05-08T16:45:08.205Z,18.60
2023-05-08T16:47:36.061Z,18.50
2023-05-08T16:50:04.348Z,18.50
2023-05-08T16:52:32.873Z,18.40
2023-05-08T16:55:00.574Z,18.40
2023-05-08T16:57:27.816Z,18.40
2023-05-08T16:59:54.807Z,18.40
2023-05-08T17:02:22.257Z,18.40
2023-05-08T17:04:49.826Z,18.40
2023-05-08T17:07:17.962Z,18.30
2023-05-08T17:09:45.229Z,18.30
2023-05-08T17:12:12.325Z,18.20
2023-05-08T17:14:40.420Z,18.20
2023-05-08T17:17:07.752Z,18.20
2023-05-08T17:19:34.859Z,18.20
2023-05-08T17:22:02.228Z,18.10
2023-05-08T17:24:32.743Z,18.10
2023-05-08T17:26:59.994Z,18.10
2023-05-08T17:29:27.045Z,18.10
2023-05-08T17:31:54.108Z,18.10
2023-05-08T17:34:22.786Z,18.10
2023-05-08T17:36:50.127Z,18.10
2023-05-08T17:39:19.918Z,18.10
2023-05-08T17:41:50.609Z,18.00
2023-05-08T17:44:19.872Z,18.00
2023-05-08T17:46:46.869Z,18.00
2023-05-08T17:49:15.442Z,17.90
2023-05-08T17:51:43.405Z,17.90
2023-05-08T17:54:10.376Z,17.90
2023-05-08T17:56:37.413Z,17.90
2023-05-08T17:59:04.355Z,17.90
2023-05-08T18:01:31.376Z,17.80
2023-05-08T18:03:58.407Z,17.80
2023-05-08T18:06:25.408Z,17.80
2023-05-08T18:08:52.455Z,17.80
2023-05-08T18:11:24.104Z,17.70
2023-05-08T18:13:52.766Z,17.70
2023-05-08T18:16:23.923Z,17.70
2023-05-08T18:18:51.911Z,17.70
2023-05-08T18:21:18.968Z,17.70
2023-05-08T18:23:45.970Z,17.70
2023-05-08T18:26:17.061Z,17.70
2023-05-08T18:28:44.309Z,17.70
2023-05-08T18:31:12.057Z,17.60
2023-05-08T18:33:39.279Z,17.60
2023-05-08T18:36:07.162Z,17.60
2023-05-08T18:38:34.804Z,17.60
2023-05-08T18:41:03.269Z,17.60
2023-05-08T18:43:30.361Z,17.60
2023-05-08T18:45:58.093Z,17.60
2023-05-08T18:48:26.300Z,17.50
2023-05-08T18:50:53.333Z,17.50
2023-05-08T18:53:20.362Z,17.40
2023-05-08T18:55:47.303Z,17.40
2023-05-08T18:58:14.321Z,17.40
2023-05-08T19:00:41.381Z,17.30
2023-05-08T19:03:08.571Z,17.30
2023-05-08T19:05:35.943Z,17.30
2023-05-08T19:08:02.965Z,17.20
2023-05-08T19:10:30.007Z,17.20
2023-05-08T19:12:57.045Z,17.10
2023-05-08T19:15:23.984Z,17.10
2023-05-08T19:17:52.858Z,17.10
2023-05-08T19:20:19.972Z,17.10
2023-05-08T19:22:47.348Z,17.00
2023-05-08T19:25:14.347Z,17.00
2023-05-08T19:27:41.362Z,17.00
2023-05-08T19:30:08.920Z,17.00
2023-05-08T19:32:36.000Z,17.00
2023-05-08T19:35:03.429Z,16.90
2023-05-08T19:37:31.197Z,16.90
2023-05-08T19:39:58.229Z,16.90
2023-05-08T19:42:25.971Z,16.90
2023-05-08T19:44:53.019Z,16.90
2023-05-08T19:47:20.034Z,16.90
2023-05-08T19:49:47.011Z,16.90
2023-05-08T19:52:14.070Z,16.80
2023-05-08T19:54:41.054Z,16.80
2023-05-08T19:57:08.084Z,16.80
2023-05-08T19:59:35.072Z,16.80
2023-05-08T20:02:02.063Z,16.80
2023-05-08T20:04:29.310Z,16.70
2023-05-08T20:06:56.462Z,16.70
2023-05-08T20:09:23.470Z,16.70
2023-05-08T20:11:50.544Z,16.70
2023-05-08T20:14:17.523Z,16.70
2023-05-08T20:16:44.628Z,16.70
2023-05-08T20:19:11.797Z,16.60
2023-05-08T20:21:38.888Z,16.60
2023-05-08T20:24:06.202Z,16.60
2023-05-08T20:26:33.285Z,16.60
2023-05-08T20:29:01.142Z,16.60
2023-05-08T20:31:30.729Z,16.60
2023-05-08T20:33:59.575Z,16.50
2023-05-08T20:36:26.785Z,16.40
2023-05-08T20:38:53.858Z,16.40
2023-05-08T20:41:20.834Z,16.40
2023-05-08T20:43:47.826Z,16.40
2023-05-08T20:46:14.845Z,16.40
2023-05-08T20:48:41.983Z,16.40
2023-05-08T20:51:09.069Z,16.40
2023-05-08T20:53:36.024Z,16.30
2023-05-08T20:56:05.161Z,16.30
2023-05-08T20:58:32.536Z,16.30
2023-05-08T21:00:59.829Z,16.30
2023-05-08T21:03:27.049Z,16.30
2023-05-08T21:05:55.560Z,16.20
2023-05-08T21:08:24.028Z,16.20
2023-05-08T21:10:52.958Z,16.20
2023-05-08T21:13:20.086Z,16.20
2023-05-08T21:15:52.853Z,16.20
2023-05-08T21:18:19.969Z,16.10
2023-05-08T21:20:50.388Z,16.10
2023-05-08T21:23:21.045Z,16.10
2023-05-08T21:25:49.195Z,16.00
2023-05-08T21:28:16.533Z,16.00
2023-05-08T21:30:44.191Z,15.90
2023-05-08T21:33:13.704Z,15.90
2023-05-08T21:35:43.800Z,15.90
2023-05-08T21:38:18.851Z,15.90
2023-05-08T21:40:45.912Z,15.90
2023-05-08T21:43:12.866Z,15.90
2023-05-08T21:45:39.869Z,15.90
2023-05-08T21:48:06.906Z,15.90
2023-05-08T21:50:34.028Z,15.90
2023-05-08T21:53:01.003Z,15.90
2023-05-08T21:55:29.466Z,15.90
2023-05-08T21:57:57.342Z,15.80
2023-05-08T22:00:24.310Z,15.80
2023-05-08T22:02:53.559Z,15.80
2023-05-08T22:05:20.530Z,15.80
2023-05-08T22:07:47.641Z,15.80
2023-05-08T22:10:14.624Z,15.70
2023-05-08T22:12:41.791Z,15.70
2023-05-08T22:15:17.897Z,15.80
2023-05-08T22:17:50.704Z,15.70
2023-05-08T22:20:18.210Z,15.70
2023-05-08T22:22:45.812Z,15.70
2023-05-08T22:25:13.143Z,15.70
2023-05-08T22:27:40.847Z,15.60
2023-05-08T22:30:08.129Z,15.70
2023-05-08T22:32:35.500Z,15.60
2023-05-08T22:35:02.863Z,15.60
2023-05-08T22:37:30.511Z,15.60
2023-05-08T22:39:57.534Z,15.60
2023-05-08T22:42:24.983Z,15.60
2023-05-08T22:44:52.060Z,15.60
2023-05-08T22:47:19.235Z,15.60
2023-05-08T22:49:46.482Z,15.60
2023-05-08T22:52:13.819Z,15.50
2023-05-08T22:54:40.789Z,15.50
2023-05-08T22:57:08.722Z,15.50
2023-05-08T22:59:36.522Z,15.50
2023-05-08T23:02:03.571Z,15.50
2023-05-08T23:04:30.620Z,15.50
2023-05-08T23:06:57.581Z,15.50
2023-05-08T23:09:24.557Z,15.50
2023-05-08T23:11:51.685Z,15.40
2023-05-08T23:14:18.707Z,15.40
2023-05-08T23:16:46.189Z,15.40
2023-05-08T23:19:13.182Z,15.40
2023-05-08T23:21:40.250Z,15.40
2023-05-08T23:24:07.758Z,15.40
2023-05-08T23:26:34.769Z,15.40
2023-05-08T23:29:01.760Z,15.40
2023-05-08T23:31:28.804Z,15.40
2023-05-08T23:33:55.919Z,15.40
2023-05-08T23:36:23.050Z,15.40
2023-05-08T23:38:50.064Z,15.30
2023-05-08T23:41:17.486Z,15.30
2023-05-08T23:43:44.465Z,15.30
2023-05-08T23:46:11.754Z,15.30
2023-05-08T23:48:38.750Z,15.30
2023-05-08T23:51:05.942Z,15.30
2023-05-08T23:53:32.974Z,15.30
2023-05-08T23:56:00.039Z,15.30
2023-05-08T23:58:26.966Z,15.30
